Time;durP1;ratioP1;P1;durP2;ratioP2;P2;SDS_P1;SDS_P2;PMS_P1;PMS_P2;Temp;Humidity;BMP_temperature;BMP_pressure;BME280_temperature;BME280_humidity;BME280_pressure;Samples;Min_cycle;Max_cycle;Signal;HPM_P1;HPM_P2
2023/02/23 00:00:49;;;;;;;30.20;16.55;;;;;;;;;;5013101;28;20046;-77
2023/02/23 00:03:16;;;;;;;27.42;15.43;;;;;;;;;;5012754;28;20149;-78
2023/02/23 00:05:42;;;;;;;31.50;15.48;;;;;;;;;;5007675;28;20116;-78
2023/02/23 00:08:09;;;;;;;27.05;15.25;;;;;;;;;;5008821;28;20484;-77
2023/02/23 00:10:37;;;;;;;25.38;15.77;;;;;;;;;;5009963;28;20042;-79
2023/02/23 00:13:04;;;;;;;29.92;16.55;;;;;;;;;;5011962;28;20141;-78
2023/02/23 00:15:31;;;;;;;27.63;16.00;;;;;;;;;;5012699;28;20065;-77
2023/02/23 00:17:58;;;;;;;28.80;15.10;;;;;;;;;;5004921;28;20047;-77
2023/02/23 00:20:26;;;;;;;25.63;15.05;;;;;;;;;;5007841;28;20730;-77
2023/02/23 00:22:53;;;;;;;27.77;15.82;;;;;;;;;;5000616;28;20111;-76
2023/02/23 00:25:20;;;;;;;29.38;15.93;;;;;;;;;;5012372;28;20088;-77
2023/02/23 00:27:49;;;;;;;28.13;15.73;;;;;;;;;;5017237;23;20065;-64
2023/02/23 00:30:17;;;;;;;27.75;16.08;;;;;;;;;;5005324;28;20049;-67
2023/02/23 00:32:45;;;;;;;26.33;14.77;;;;;;;;;;5005856;28;20084;-71
2023/02/23 00:35:16;;;;;;;33.67;16.45;;;;;;;;;;5002531;28;20504;-64
2023/02/23 00:37:44;;;;;;;27.33;15.50;;;;;;;;;;4991901;28;20578;-52
2023/02/23 00:40:15;;;;;;;29.92;17.20;;;;;;;;;;5000361;28;20146;-54
2023/02/23 00:42:43;;;;;;;27.23;15.85;;;;;;;;;;5011031;28;20598;-54
2023/02/23 00:45:12;;;;;;;28.08;15.63;;;;;;;;;;5003253;28;20108;-51
2023/02/23 00:47:41;;;;;;;31.80;16.95;;;;;;;;;;4991713;28;20495;-53
2023/02/23 00:50:11;;;;;;;30.67;16.70;;;;;;;;;;4985669;28;20423;-55
2023/02/23 00:52:39;;;;;;;29.52;15.70;;;;;;;;;;5003788;28;20153;-55
2023/02/23 00:55:07;;;;;;;25.83;15.02;;;;;;;;;;5006386;28;20108;-54
2023/02/23 00:57:34;;;;;;;28.25;16.95;;;;;;;;;;5012092;28;20048;-53
2023/02/23 01:00:02;;;;;;;29.65;17.17;;;;;;;;;;5012732;28;20050;-55
2023/02/23 01:02:31;;;;;;;30.65;16.48;;;;;;;;;;5012933;28;20054;-56
2023/02/23 01:04:57;;;;;;;29.13;15.57;;;;;;;;;;5012481;28;20049;-55
2023/02/23 01:07:24;;;;;;;27.48;15.63;;;;;;;;;;4995341;28;20045;-55
2023/02/23 01:09:51;;;;;;;28.98;17.05;;;;;;;;;;5003206;28;20050;-54
2023/02/23 01:12:18;;;;;;;28.33;15.75;;;;;;;;;;5000226;28;20045;-54
2023/02/23 01:14:46;;;;;;;28.40;16.75;;;;;;;;;;5001538;28;20104;-55
2023/02/23 01:17:13;;;;;;;31.45;16.30;;;;;;;;;;4998502;28;20042;-55
2023/02/23 01:19:41;;;;;;;32.03;17.70;;;;;;;;;;5008332;28;20050;-55
2023/02/23 01:22:08;;;;;;;29.85;16.95;;;;;;;;;;5009888;28;20580;-56
2023/02/23 01:24:35;;;;;;;28.60;17.40;;;;;;;;;;4996712;28;20050;-54
2023/02/23 01:27:01;;;;;;;31.25;17.45;;;;;;;;;;5003048;28;20050;-55
2023/02/23 01:29:29;;;;;;;27.88;15.98;;;;;;;;;;5011980;28;20045;-54
2023/02/23 01:31:55;;;;;;;32.65;17.95;;;;;;;;;;5012297;28;20487;-54
2023/02/23 01:34:23;;;;;;;31.65;18.15;;;;;;;;;;5011644;28;20056;-55
2023/02/23 01:36:51;;;;;;;32.80;17.17;;;;;;;;;;4992359;28;20069;-54
2023/02/23 01:39:19;;;;;;;39.03;18.33;;;;;;;;;;4992870;28;20178;-52
2023/02/23 01:41:47;;;;;;;34.90;17.58;;;;;;;;;;4992506;28;20054;-52
2023/02/23 01:44:50;;;;;;;32.03;17.15;;;;;;;;;;4993015;28;20287;-54
2023/02/23 01:47:19;;;;;;;34.30;18.65;;;;;;;;;;4992305;28;20061;-55
2023/02/23 01:49:47;;;;;;;32.45;18.95;;;;;;;;;;5007029;28;20049;-54
2023/02/23 01:52:17;;;;;;;32.47;17.27;;;;;;;;;;5011770;28;20046;-55
2023/02/23 01:54:50;;;;;;;32.85;18.15;;;;;;;;;;4995539;28;20054;-54
2023/02/23 01:57:17;;;;;;;31.60;18.17;;;;;;;;;;4992278;28;20042;-56
2023/02/23 01:59:47;;;;;;;30.90;17.25;;;;;;;;;;4992314;28;20047;-51
2023/02/23 02:02:16;;;;;;;32.53;17.70;;;;;;;;;;4992609;28;20058;-54
2023/02/23 02:04:44;;;;;;;31.65;18.50;;;;;;;;;;4992457;28;20051;-51
2023/02/23 02:07:13;;;;;;;33.05;19.50;;;;;;;;;;5000801;28;20385;-55
2023/02/23 02:10:16;;;;;;;34.60;18.17;;;;;;;;;;4993677;28;20412;-51
2023/02/23 02:12:29;;;;;;;33.60;17.83;;;;;;;;;;4992315;28;20109;-55
2023/02/23 02:14:56;;;;;;;34.33;18.92;;;;;;;;;;4992052;28;20054;-56
2023/02/23 02:17:36;;;;;;;31.75;18.75;;;;;;;;;;4992013;28;20050;-51
2023/02/23 02:20:31;;;;;;;34.33;19.57;;;;;;;;;;4993812;28;20057;-53
2023/02/23 02:23:43;;;;;;;32.63;17.73;;;;;;;;;;5003994;28;20050;-53
2023/02/23 02:26:23;;;;;;;35.45;18.40;;;;;;;;;;4960713;28;20100;-54
2023/02/23 02:29:17;;;;;;;32.92;18.88;;;;;;;;;;4996119;28;20123;-55
2023/02/23 02:32:28;;;;;;;33.35;18.58;;;;;;;;;;4995808;28;20058;-53
2023/02/23 02:35:23;;;;;;;30.58;17.60;;;;;;;;;;4995973;28;20050;-54
2023/02/23 02:38:10;;;;;;;33.45;18.65;;;;;;;;;;5006453;28;20045;-54
2023/02/23 02:40:52;;;;;;;30.63;17.65;;;;;;;;;;5005494;28;20054;-54
2023/02/23 02:43:25;;;;;;;35.28;19.25;;;;;;;;;;5008820;28;20081;-53
2023/02/23 02:45:58;;;;;;;37.67;18.90;;;;;;;;;;5015334;28;20046;-52
2023/02/23 02:48:37;;;;;;;31.90;18.75;;;;;;;;;;5000188;28;20081;-55
2023/02/23 02:51:08;;;;;;;32.47;18.50;;;;;;;;;;4997302;28;20043;-52
2023/02/23 02:53:43;;;;;;;31.73;18.40;;;;;;;;;;5007234;28;20490;-51
2023/02/23 02:56:13;;;;;;;33.53;19.45;;;;;;;;;;5015185;28;20053;-51
2023/02/23 02:58:42;;;;;;;33.63;18.95;;;;;;;;;;4999282;28;20064;-54
2023/02/23 04:19:52;;;;;;;36.55;19.15;;;;;;;;;;5013516;28;20069;-53
2023/02/23 04:22:19;;;;;;;36.85;19.30;;;;;;;;;;5013269;28;20050;-50
2023/02/23 04:24:45;;;;;;;38.40;19.10;;;;;;;;;;5012173;28;20607;-53
2023/02/23 04:27:13;;;;;;;35.70;18.73;;;;;;;;;;5013436;28;20137;-53
2023/02/23 04:29:40;;;;;;;37.78;19.80;;;;;;;;;;5013237;28;20045;-50
2023/02/23 04:32:07;;;;;;;37.08;20.23;;;;;;;;;;5013387;28;20076;-53
2023/02/23 04:34:35;;;;;;;42.53;21.92;;;;;;;;;;5003724;28;20100;-50
2023/02/23 04:37:02;;;;;;;44.90;24.20;;;;;;;;;;4997277;28;20467;-54
2023/02/23 04:39:29;;;;;;;41.55;22.33;;;;;;;;;;5013272;28;20057;-52
2023/02/23 04:41:56;;;;;;;47.90;24.75;;;;;;;;;;5010906;28;20108;-53
2023/02/23 04:44:23;;;;;;;51.03;25.13;;;;;;;;;;4994349;28;20101;-51
2023/02/23 04:46:49;;;;;;;44.42;25.27;;;;;;;;;;4993674;28;20423;-52
2023/02/23 04:49:16;;;;;;;49.22;25.08;;;;;;;;;;5004600;28;20046;-54
2023/02/23 04:51:44;;;;;;;41.90;21.67;;;;;;;;;;4993238;28;20046;-53
2023/02/23 04:54:11;;;;;;;45.72;23.20;;;;;;;;;;4993534;28;20567;-54
2023/02/23 04:56:38;;;;;;;37.72;19.08;;;;;;;;;;5004852;28;20050;-53
2023/02/23 04:59:05;;;;;;;37.38;20.52;;;;;;;;;;5013084;28;20053;-55
2023/02/23 05:01:32;;;;;;;42.42;22.17;;;;;;;;;;5002594;28;20547;-51
2023/02/23 05:03:59;;;;;;;36.17;19.73;;;;;;;;;;5000929;28;20466;-54
2023/02/23 05:06:26;;;;;;;39.78;21.85;;;;;;;;;;5012883;28;20048;-55
2023/02/23 05:08:54;;;;;;;44.75;23.90;;;;;;;;;;5012694;28;20462;-55
2023/02/23 05:11:21;;;;;;;50.33;23.75;;;;;;;;;;5005047;28;20483;-52
2023/02/23 05:13:48;;;;;;;55.58;27.90;;;;;;;;;;4993608;28;20085;-49
2023/02/23 05:16:16;;;;;;;51.95;26.85;;;;;;;;;;5007414;28;20499;-53
2023/02/23 05:18:42;;;;;;;55.38;25.83;;;;;;;;;;5012432;28;20046;-53
2023/02/23 05:21:11;;;;;;;52.58;27.88;;;;;;;;;;5007396;28;20166;-53
2023/02/23 05:23:38;;;;;;;58.08;28.45;;;;;;;;;;4992913;28;20054;-55
2023/02/23 05:26:09;;;;;;;52.78;27.92;;;;;;;;;;4993294;28;20120;-56
2023/02/23 05:28:36;;;;;;;;;;;;;;;;;;4994779;28;20046;-51
2023/02/23 05:31:04;;;;;;;42.42;21.90;;;;;;;;;;4993050;28;19929;-51
2023/02/23 05:33:30;;;;;;;45.95;23.20;;;;;;;;;;4993232;28;20613;-53
2023/02/23 05:35:57;;;;;;;39.45;19.88;;;;;;;;;;4993411;28;20338;-54
2023/02/23 05:38:24;;;;;;;40.30;20.40;;;;;;;;;;5000946;28;20456;-54
2023/02/23 05:40:51;;;;;;;38.72;19.75;;;;;;;;;;4992902;28;20073;-54
2023/02/23 05:43:20;;;;;;;40.08;19.30;;;;;;;;;;4992685;28;20459;-54
2023/02/23 05:45:46;;;;;;;44.85;21.48;;;;;;;;;;4992851;28;20503;-54
2023/02/23 05:48:13;;;;;;;47.08;23.27;;;;;;;;;;4992893;28;20050;-53
2023/02/23 05:50:40;;;;;;;45.75;23.73;;;;;;;;;;5004946;28;20125;-54
2023/02/23 05:53:07;;;;;;;45.47;23.95;;;;;;;;;;5008088;28;20101;-52
2023/02/23 05:55:35;;;;;;;46.72;23.50;;;;;;;;;;5003016;28;20068;-55
2023/02/23 05:58:02;;;;;;;43.67;23.35;;;;;;;;;;5012101;28;20069;-50
2023/02/23 06:00:31;;;;;;;45.30;23.05;;;;;;;;;;5012103;28;20523;-54
2023/02/23 06:02:58;;;;;;;43.25;24.35;;;;;;;;;;5012353;28;20054;-54
2023/02/23 06:05:24;;;;;;;43.70;23.85;;;;;;;;;;5003016;28;20078;-51
2023/02/23 06:07:52;;;;;;;45.95;24.20;;;;;;;;;;4992293;28;20054;-51
2023/02/23 06:10:19;;;;;;;48.65;24.50;;;;;;;;;;4999468;28;20049;-54
2023/02/23 06:12:45;;;;;;;49.90;25.20;;;;;;;;;;4994794;28;20046;-53
2023/02/23 06:15:12;;;;;;;48.13;25.88;;;;;;;;;;4997604;28;20108;-51
2023/02/23 06:17:40;;;;;;;46.97;24.25;;;;;;;;;;5011387;28;20096;-50
2023/02/23 06:20:08;;;;;;;45.28;23.73;;;;;;;;;;5011882;28;20049;-55
2023/02/23 06:22:35;;;;;;;43.47;23.17;;;;;;;;;;5012031;28;20046;-53
2023/02/23 06:25:04;;;;;;;46.08;23.77;;;;;;;;;;5008755;28;20120;-53
2023/02/23 06:27:31;;;;;;;45.33;22.52;;;;;;;;;;4993654;28;20388;-53
2023/02/23 06:29:58;;;;;;;44.78;23.05;;;;;;;;;;4992323;28;20306;-54
2023/02/23 06:32:25;;;;;;;45.85;24.33;;;;;;;;;;4992153;28;20046;-55
2023/02/23 06:34:53;;;;;;;45.03;23.80;;;;;;;;;;4993188;28;20113;-50
2023/02/23 06:37:20;;;;;;;47.97;23.75;;;;;;;;;;5011753;28;20050;-55
2023/02/23 06:39:47;;;;;;;50.63;24.88;;;;;;;;;;5011848;28;20042;-54
2023/02/23 06:42:15;;;;;;;51.03;26.00;;;;;;;;;;5011795;28;20053;-50
2023/02/23 06:44:41;;;;;;;44.92;22.55;;;;;;;;;;4998779;28;20077;-55
2023/02/23 06:47:09;;;;;;;44.80;23.95;;;;;;;;;;4992759;28;20053;-54
2023/02/23 06:49:36;;;;;;;45.58;23.48;;;;;;;;;;5003193;28;20058;-54
2023/02/23 06:52:05;;;;;;;42.83;22.77;;;;;;;;;;5011578;28;20565;-55
2023/02/23 06:54:33;;;;;;;38.25;20.42;;;;;;;;;;5001159;28;20055;-54
2023/02/23 06:56:59;;;;;;;35.50;18.88;;;;;;;;;;4992308;28;20510;-53
2023/02/23 06:59:26;;;;;;;34.78;18.67;;;;;;;;;;5000134;28;20495;-54
2023/02/23 07:01:53;;;;;;;34.03;18.70;;;;;;;;;;5011605;28;20050;-53
2023/02/23 07:04:20;;;;;;;34.30;19.10;;;;;;;;;;5000723;28;20404;-51
2023/02/23 07:06:47;;;;;;;37.10;18.85;;;;;;;;;;4993965;28;20105;-53
2023/02/23 07:09:15;;;;;;;36.92;20.05;;;;;;;;;;5001382;28;20076;-55
2023/02/23 07:11:43;;;;;;;40.97;19.92;;;;;;;;;;5014714;28;20499;-53
2023/02/23 07:14:11;;;;;;;34.03;18.42;;;;;;;;;;5006101;28;20046;-53
2023/02/23 07:16:38;;;;;;;33.83;18.75;;;;;;;;;;4995030;28;20065;-56
2023/02/23 07:19:05;;;;;;;31.63;16.77;;;;;;;;;;4995452;28;20043;-54
2023/02/23 07:21:33;;;;;;;33.20;17.63;;;;;;;;;;4994938;28;20051;-57
2023/02/23 07:24:03;;;;;;;34.88;17.67;;;;;;;;;;5001403;28;20056;-54
2023/02/23 07:26:32;;;;;;;33.63;18.13;;;;;;;;;;5014901;28;20046;-50
2023/02/23 07:28:59;;;;;;;38.63;18.63;;;;;;;;;;5012482;28;20050;-55
2023/02/23 07:31:26;;;;;;;36.92;18.10;;;;;;;;;;4994818;28;20042;-52
2023/02/23 07:33:53;;;;;;;36.72;18.45;;;;;;;;;;4995477;28;20113;-54
2023/02/23 07:36:20;;;;;;;34.25;16.50;;;;;;;;;;4995401;28;20462;-55
2023/02/23 07:38:47;;;;;;;35.47;18.23;;;;;;;;;;4994775;28;20054;-51
2023/02/23 07:41:14;;;;;;;34.20;17.55;;;;;;;;;;4994772;28;20050;-54
2023/02/23 07:43:42;;;;;;;31.75;17.38;;;;;;;;;;4994879;28;20046;-55
2023/02/23 07:46:09;;;;;;;33.55;17.42;;;;;;;;;;4994734;28;20046;-56
2023/02/23 07:48:36;;;;;;;29.83;16.95;;;;;;;;;;4994803;28;20097;-55
2023/02/23 07:51:09;;;;;;;32.50;16.40;;;;;;;;;;4994518;28;20050;-56
2023/02/23 07:53:36;;;;;;;35.72;17.55;;;;;;;;;;4994740;28;20081;-55
2023/02/23 07:56:04;;;;;;;33.03;16.38;;;;;;;;;;4994627;28;20054;-56
2023/02/23 07:58:31;;;;;;;32.53;17.02;;;;;;;;;;5001197;28;20074;-55
2023/02/23 08:00:59;;;;;;;35.00;18.20;;;;;;;;;;4994509;28;20057;-55
2023/02/23 08:03:26;;;;;;;31.83;16.70;;;;;;;;;;4994941;28;20053;-52
2023/02/23 08:05:53;;;;;;;31.75;17.38;;;;;;;;;;4995254;28;20145;-54
2023/02/23 08:08:19;;;;;;;32.13;17.13;;;;;;;;;;5013686;28;20058;-53
2023/02/23 08:10:47;;;;;;;29.42;16.48;;;;;;;;;;5013915;28;20049;-54
2023/02/23 08:13:14;;;;;;;32.78;17.00;;;;;;;;;;5014053;28;20049;-56
2023/02/23 08:15:41;;;;;;;34.42;17.05;;;;;;;;;;5013878;28;20046;-54
2023/02/23 08:18:10;;;;;;;31.63;16.88;;;;;;;;;;5012648;28;20049;-53
2023/02/23 08:20:37;;;;;;;31.67;16.67;;;;;;;;;;4996609;28;20805;-54
2023/02/23 08:23:03;;;;;;;29.83;16.02;;;;;;;;;;4994216;28;20487;-56
2023/02/23 08:25:30;;;;;;;32.75;17.38;;;;;;;;;;5000616;28;20491;-55
2023/02/23 08:28:03;;;;;;;31.52;17.35;;;;;;;;;;5006511;28;20057;-54
2023/02/23 08:30:30;;;;;;;31.42;16.35;;;;;;;;;;5008893;28;20053;-54
2023/02/23 08:32:57;;;;;;;34.17;17.10;;;;;;;;;;5013576;28;20137;-53
2023/02/23 08:35:26;;;;;;;32.15;16.90;;;;;;;;;;5013132;28;20547;-55
2023/02/23 08:37:53;;;;;;;32.65;17.42;;;;;;;;;;5011762;28;20054;-54
2023/02/23 08:40:20;;;;;;;31.48;16.48;;;;;;;;;;5000563;28;20395;-53
2023/02/23 08:42:50;;;;;;;29.42;16.48;;;;;;;;;;4994189;28;20086;-54
2023/02/23 08:45:19;;;;;;;32.80;17.55;;;;;;;;;;4994037;28;20054;-53
2023/02/23 08:47:45;;;;;;;31.80;16.98;;;;;;;;;;4993561;28;20109;-55
2023/02/23 08:50:13;;;;;;;31.02;16.27;;;;;;;;;;5003972;28;20054;-53
2023/02/23 08:52:42;;;;;;;35.15;15.55;;;;;;;;;;5012999;28;20042;-53
2023/02/23 08:55:12;;;;;;;32.53;16.33;;;;;;;;;;5001559;28;20077;-54
2023/02/23 08:57:39;;;;;;;32.90;16.77;;;;;;;;;;4993449;28;20042;-54
2023/02/23 09:00:12;;;;;;;32.45;17.85;;;;;;;;;;4993503;28;20053;-53
2023/02/23 09:02:39;;;;;;;28.38;15.48;;;;;;;;;;4974007;28;20385;-52
2023/02/23 09:05:07;;;;;;;33.22;16.08;;;;;;;;;;4982351;28;20042;-55
2023/02/23 09:07:34;;;;;;;28.20;15.20;;;;;;;;;;5001864;28;20112;-55
2023/02/23 09:10:03;;;;;;;28.25;16.50;;;;;;;;;;5012919;28;20421;-54
2023/02/23 09:12:30;;;;;;;29.15;15.70;;;;;;;;;;5012204;28;20045;-56
2023/02/23 09:14:56;;;;;;;30.27;15.95;;;;;;;;;;4994088;28;20050;-55
2023/02/23 09:17:23;;;;;;;31.55;16.58;;;;;;;;;;4993114;28;20108;-54
2023/02/23 09:19:50;;;;;;;30.23;14.82;;;;;;;;;;4992805;28;20050;-51
2023/02/23 09:22:18;;;;;;;28.88;14.30;;;;;;;;;;4995906;28;20108;-53
2023/02/23 09:24:45;;;;;;;30.48;14.50;;;;;;;;;;5010521;28;20412;-50
2023/02/23 09:27:14;;;;;;;31.50;15.90;;;;;;;;;;5010530;28;20041;-55
2023/02/23 09:29:42;;;;;;;25.58;13.88;;;;;;;;;;4973073;28;20061;-56
2023/02/23 09:32:09;;;;;;;29.92;14.90;;;;;;;;;;4974826;28;20125;-53
2023/02/23 09:34:36;;;;;;;29.80;14.82;;;;;;;;;;5004231;28;20053;-54
2023/02/23 09:37:03;;;;;;;26.40;14.48;;;;;;;;;;4996934;28;20234;-54
2023/02/23 09:39:30;;;;;;;27.75;14.50;;;;;;;;;;4992833;28;20097;-52
2023/02/23 09:42:08;;;;;;;23.40;13.57;;;;;;;;;;5006622;28;20058;-56
2023/02/23 09:44:49;;;;;;;30.85;14.88;;;;;;;;;;5012509;28;20183;-56
2023/02/23 09:47:31;;;;;;;27.58;13.32;;;;;;;;;;4997027;28;20058;-51
2023/02/23 09:50:02;;;;;;;26.00;13.45;;;;;;;;;;4992961;28;20042;-54
2023/02/23 09:52:39;;;;;;;27.08;13.73;;;;;;;;;;5009669;28;20054;-55
2023/02/23 09:55:10;;;;;;;24.08;13.18;;;;;;;;;;5010793;28;20088;-53
2023/02/23 09:57:39;;;;;;;27.35;14.43;;;;;;;;;;5010290;28;20454;-53
2023/02/23 10:00:16;;;;;;;25.10;12.18;;;;;;;;;;5012064;28;20050;-54
2023/02/23 10:02:58;;;;;;;23.25;14.02;;;;;;;;;;4994150;28;20089;-54
2023/02/23 10:05:29;;;;;;;21.15;12.30;;;;;;;;;;4992640;28;20079;-54
2023/02/23 10:07:59;;;;;;;24.13;12.60;;;;;;;;;;4992804;28;20105;-52
2023/02/23 10:10:38;;;;;;;23.67;12.57;;;;;;;;;;5006275;28;20083;-54
2023/02/23 10:13:13;;;;;;;21.95;11.45;;;;;;;;;;4973195;28;20066;-55
2023/02/23 10:15:46;;;;;;;23.40;12.25;;;;;;;;;;4972965;28;20113;-55
2023/02/23 10:18:26;;;;;;;23.20;12.38;;;;;;;;;;4972791;28;20528;-53
2023/02/23 10:21:01;;;;;;;23.90;13.50;;;;;;;;;;4995510;28;20427;-54
2023/02/23 10:23:31;;;;;;;24.05;12.27;;;;;;;;;;5012317;28;20050;-54
2023/02/23 10:26:00;;;;;;;21.90;11.45;;;;;;;;;;5011456;28;20491;-51
2023/02/23 10:28:33;;;;;;;21.15;10.35;;;;;;;;;;4992178;28;20423;-54
2023/02/23 10:31:04;;;;;;;21.13;11.13;;;;;;;;;;4993507;28;20097;-56
2023/02/23 10:33:32;;;;;;;;;;;;;;;;;;5011543;28;20064;-64
2023/02/23 10:36:10;;;;;;;21.20;11.20;;;;;;;;;;4993993;28;20379;-54
2023/02/23 10:38:37;;;;;;;19.23;9.88;;;;;;;;;;4997430;28;20050;-60
2023/02/23 10:41:04;;;;;;;21.67;11.20;;;;;;;;;;5009982;28;20499;-56
2023/02/23 10:43:31;;;;;;;21.25;11.93;;;;;;;;;;5015791;28;20531;-55
2023/02/23 10:45:58;;;;;;;19.42;12.00;;;;;;;;;;5013925;28;20085;-65
2023/02/23 10:48:29;;;;;;;21.48;11.23;;;;;;;;;;5002993;28;20050;-61
2023/02/23 10:50:59;;;;;;;;;;;;;;;;;;4997511;28;20443;-57
2023/02/23 10:53:27;;;;;;;18.27;9.98;;;;;;;;;;4996305;28;19922;-56
2023/02/23 10:56:02;;;;;;;19.55;11.30;;;;;;;;;;4995802;28;20104;-56
2023/02/23 10:58:30;;;;;;;19.98;10.52;;;;;;;;;;4995639;28;20543;-54
2023/02/23 11:00:59;;;;;;;19.00;11.63;;;;;;;;;;4995528;28;20105;-55
2023/02/23 11:03:32;;;;;;;21.00;11.13;;;;;;;;;;5011046;28;20049;-56
2023/02/23 11:05:59;;;;;;;20.13;10.13;;;;;;;;;;5010992;28;20054;-59
2023/02/23 11:08:31;;;;;;;19.48;9.88;;;;;;;;;;4997298;28;20049;-60
2023/02/23 11:11:04;;;;;;;17.05;10.40;;;;;;;;;;4996500;28;20043;-55
2023/02/23 11:13:36;;;;;;;18.33;10.70;;;;;;;;;;5012532;28;20042;-55
2023/02/23 11:16:06;;;;;;;18.45;10.07;;;;;;;;;;5006698;28;20419;-56
2023/02/23 11:18:34;;;;;;;18.73;10.00;;;;;;;;;;4994116;28;20419;-54
2023/02/23 11:21:01;;;;;;;24.98;11.73;;;;;;;;;;5005921;28;20093;-59
2023/02/23 11:23:31;;;;;;;20.17;11.38;;;;;;;;;;5000204;28;20092;-57
2023/02/23 11:26:00;;;;;;;;;;;;;;;;;;5015308;28;20101;-58
2023/02/23 11:28:30;;;;;;;21.25;11.15;;;;;;;;;;5014522;28;19927;-55
2023/02/23 11:31:01;;;;;;;17.80;10.50;;;;;;;;;;5014416;28;20124;-56
2023/02/23 11:33:34;;;;;;;16.85;9.75;;;;;;;;;;5014747;28;20046;-55
2023/02/23 11:36:15;;;;;;;20.35;11.10;;;;;;;;;;5015035;28;20423;-55
2023/02/23 11:38:41;;;;;;;19.02;11.60;;;;;;;;;;5014682;28;20049;-56
2023/02/23 11:41:20;;;;;;;17.52;10.18;;;;;;;;;;5014200;28;20104;-56
2023/02/23 11:43:49;;;;;;;19.33;10.55;;;;;;;;;;5014529;28;20125;-57
2023/02/23 11:46:16;;;;;;;21.45;11.13;;;;;;;;;;5014491;28;20056;-58
2023/02/23 11:48:48;;;;;;;19.45;11.25;;;;;;;;;;5014626;28;20050;-55
2023/02/23 11:51:29;;;;;;;20.52;11.50;;;;;;;;;;5014246;28;20085;-57
2023/02/23 11:53:56;;;;;;;21.15;10.63;;;;;;;;;;5013385;28;20061;-55
2023/02/23 11:56:24;;;;;;;18.95;10.52;;;;;;;;;;5014806;28;20132;-57
2023/02/23 11:58:54;;;;;;;21.55;11.30;;;;;;;;;;5014277;28;20058;-54
2023/02/23 12:01:24;;;;;;;20.15;10.25;;;;;;;;;;5013855;28;20046;-55
2023/02/23 12:03:53;;;;;;;15.85;9.15;;;;;;;;;;5014464;28;20503;-56
2023/02/23 12:06:31;;;;;;;20.13;10.15;;;;;;;;;;5003975;28;20153;-59
2023/02/23 12:09:04;;;;;;;16.35;10.57;;;;;;;;;;4994491;28;20050;-57
2023/02/23 12:11:37;;;;;;;19.23;9.98;;;;;;;;;;4994205;28;20049;-56
2023/02/23 12:14:10;;;;;;;18.35;8.70;;;;;;;;;;4994299;28;20050;-56
2023/02/23 12:16:42;;;;;;;18.10;9.73;;;;;;;;;;4994226;28;20097;-57
2023/02/23 12:19:20;;;;;;;14.93;8.55;;;;;;;;;;4994369;28;20069;-57
2023/02/23 12:21:53;;;;;;;11.45;6.47;;;;;;;;;;4993900;28;20097;-57
2023/02/23 12:24:25;;;;;;;13.85;7.18;;;;;;;;;;4994217;28;20477;-55
2023/02/23 12:26:59;;;;;;;14.25;7.53;;;;;;;;;;4994241;28;20054;-54
2023/02/23 12:29:31;;;;;;;16.05;9.10;;;;;;;;;;5037859;23;20085;-58
2023/02/23 12:32:04;;;;;;;18.55;9.32;;;;;;;;;;5054551;28;20080;-59
2023/02/23 12:34:37;;;;;;;14.13;7.88;;;;;;;;;;5054997;28;20497;-60
2023/02/23 12:37:19;;;;;;;14.73;7.25;;;;;;;;;;5054630;28;20448;-60
2023/02/23 12:39:52;;;;;;;13.82;7.93;;;;;;;;;;5034110;28;20057;-59
2023/02/23 12:42:25;;;;;;;14.73;7.75;;;;;;;;;;5034162;28;20513;-58
2023/02/23 12:44:54;;;;;;;12.93;6.82;;;;;;;;;;5034372;28;20501;-57
2023/02/23 12:47:32;;;;;;;15.50;8.37;;;;;;;;;;5034174;28;20053;-58
2023/02/23 12:50:06;;;;;;;13.13;6.93;;;;;;;;;;5034348;28;20057;-58
2023/02/23 12:52:38;;;;;;;13.43;6.50;;;;;;;;;;5034369;28;20144;-58
2023/02/23 12:55:10;;;;;;;10.82;6.18;;;;;;;;;;5034167;28;20103;-55
2023/02/23 12:57:43;;;;;;;10.50;5.95;;;;;;;;;;5034722;28;20107;-57
2023/02/23 13:00:29;;;;;;;11.90;6.03;;;;;;;;;;5034233;28;20100;-59
2023/02/23 13:03:25;;;;;;;10.75;5.88;;;;;;;;;;5033852;28;20124;-59
2023/02/23 13:06:02;;;;;;;11.48;6.03;;;;;;;;;;5034699;28;20141;-59
2023/02/23 13:08:42;;;;;;;11.88;6.38;;;;;;;;;;5034161;28;20084;-58
2023/02/23 13:11:22;;;;;;;9.70;5.20;;;;;;;;;;5034262;28;20163;-59
2023/02/23 13:13:53;;;;;;;12.27;6.70;;;;;;;;;;5034185;28;20541;-58
2023/02/23 13:16:30;;;;;;;9.25;5.15;;;;;;;;;;5034219;28;20336;-59
2023/02/23 13:19:07;;;;;;;11.93;5.43;;;;;;;;;;5033559;28;20053;-58
2023/02/23 13:21:38;;;;;;;9.70;4.95;;;;;;;;;;5033732;28;20057;-55
2023/02/23 13:24:09;;;;;;;;;;;;;;;;;;5034435;28;20053;-57
2023/02/23 13:26:44;;;;;;;9.73;4.30;;;;;;;;;;5034207;28;19925;-58
2023/02/23 13:29:24;;;;;;;10.02;4.60;;;;;;;;;;5033585;28;20103;-58
2023/02/23 13:31:52;;;;;;;7.75;4.47;;;;;;;;;;5033958;28;20395;-57
2023/02/23 13:34:26;;;;;;;8.60;4.10;;;;;;;;;;5034663;28;20494;-58
2023/02/23 13:36:54;;;;;;;7.40;3.78;;;;;;;;;;5034382;28;20104;-57
2023/02/23 13:40:00;;;;;;;9.18;3.63;;;;;;;;;;5033648;28;20219;-59
2023/02/23 13:42:43;;;;;;;7.72;3.90;;;;;;;;;;4972262;28;20090;-57
2023/02/23 13:45:34;;;;;;;9.15;4.63;;;;;;;;;;5029645;28;20486;-59
2023/02/23 13:48:05;;;;;;;;;;;;;;;;;;5034104;28;20107;-56
2023/02/23 13:50:40;;;;;;;7.45;3.97;;;;;;;;;;5033295;28;19975;-57
2023/02/23 13:53:24;;;;;;;8.90;4.20;;;;;;;;;;5033084;28;20096;-58
2023/02/23 13:55:53;;;;;;;7.40;3.60;;;;;;;;;;5032841;28;20049;-55
2023/02/23 13:58:27;;;;;;;9.50;3.92;;;;;;;;;;5032928;28;20053;-58
2023/02/23 14:01:05;;;;;;;8.20;3.90;;;;;;;;;;5032927;28;20069;-58
2023/02/23 14:03:36;;;;;;;8.05;3.90;;;;;;;;;;5033089;28;20085;-57
2023/02/23 14:06:04;;;;;;;9.52;3.83;;;;;;;;;;5032957;28;20457;-58
2023/02/23 14:08:35;;;;;;;10.60;4.90;;;;;;;;;;5032623;28;20395;-56
2023/02/23 14:11:04;;;;;;;7.97;3.75;;;;;;;;;;5033143;28;20053;-57
2023/02/23 14:13:33;;;;;;;5.93;3.30;;;;;;;;;;5033615;28;20060;-57
2023/02/23 14:16:15;;;;;;;6.82;3.38;;;;;;;;;;5034149;28;20045;-57
2023/02/23 14:19:05;;;;;;;8.18;3.67;;;;;;;;;;5037840;28;20045;-57
2023/02/23 14:21:35;;;;;;;9.10;4.55;;;;;;;;;;5037663;28;20152;-59
2023/02/23 14:24:16;;;;;;;9.07;4.22;;;;;;;;;;5037377;28;20096;-59
2023/02/23 14:27:15;;;;;;;6.38;3.90;;;;;;;;;;5036974;28;20053;-55
2023/02/23 14:29:43;;;;;;;9.32;3.85;;;;;;;;;;5036347;28;20050;-56
2023/02/23 14:32:31;;;;;;;8.18;3.67;;;;;;;;;;5035868;28;20053;-56
2023/02/23 14:34:59;;;;;;;8.40;4.10;;;;;;;;;;5036176;28;20099;-59
2023/02/23 14:37:30;;;;;;;8.45;4.28;;;;;;;;;;5036111;28;20104;-58
2023/02/23 14:40:05;;;;;;;9.95;4.57;;;;;;;;;;5036150;28;20057;-58
2023/02/23 14:42:33;;;;;;;10.65;4.82;;;;;;;;;;5036061;28;20050;-59
2023/02/23 14:45:05;;;;;;;17.17;7.22;;;;;;;;;;5036129;28;20049;-58
2023/02/23 14:47:41;;;;;;;9.57;4.63;;;;;;;;;;5036022;28;20103;-58
2023/02/23 14:50:19;;;;;;;28.98;10.30;;;;;;;;;;5035908;28;20492;-58
2023/02/23 14:52:47;;;;;;;9.77;4.82;;;;;;;;;;5035727;28;20050;-59
2023/02/23 14:55:22;;;;;;;7.20;3.42;;;;;;;;;;5035876;28;20061;-58
2023/02/23 14:57:51;;;;;;;7.90;4.72;;;;;;;;;;5036003;28;20049;-58
2023/02/23 15:00:21;;;;;;;8.73;4.22;;;;;;;;;;5035519;28;20057;-58
2023/02/23 15:02:58;;;;;;;7.78;4.35;;;;;;;;;;5036153;28;20049;-58
2023/02/23 15:05:27;;;;;;;11.93;5.43;;;;;;;;;;5035666;28;20061;-59
2023/02/23 15:07:58;;;;;;;9.48;4.30;;;;;;;;;;5035502;28;20561;-58
2023/02/23 15:10:29;;;;;;;10.35;5.20;;;;;;;;;;5035509;28;20415;-59
2023/02/23 15:13:01;;;;;;;7.88;4.15;;;;;;;;;;5035520;28;20080;-57
2023/02/23 15:15:29;;;;;;;8.20;4.47;;;;;;;;;;5035478;28;20053;-58
2023/02/23 15:18:01;;;;;;;9.25;4.32;;;;;;;;;;5035672;28;20049;-58
2023/02/23 15:20:32;;;;;;;9.35;4.63;;;;;;;;;;5036262;28;20060;-58
2023/02/23 15:23:01;;;;;;;9.15;4.22;;;;;;;;;;5036190;28;20045;-59
2023/02/23 15:25:36;;;;;;;9.50;5.63;;;;;;;;;;5035689;28;20057;-58
2023/02/23 15:28:21;;;;;;;8.77;5.38;;;;;;;;;;5034108;28;20529;-58
2023/02/23 15:30:49;;;;;;;10.13;5.18;;;;;;;;;;5035407;28;20072;-58
2023/02/23 15:33:22;;;;;;;13.05;6.00;;;;;;;;;;5036023;28;20050;-57
2023/02/23 15:35:52;;;;;;;8.85;4.35;;;;;;;;;;5035483;28;20498;-58
2023/02/23 15:38:23;;;;;;;12.25;7.03;;;;;;;;;;5035435;28;20396;-58
2023/02/23 15:40:54;;;;;;;10.48;5.05;;;;;;;;;;5034951;28;20108;-58
2023/02/23 15:43:23;;;;;;;11.45;5.28;;;;;;;;;;5035625;28;20411;-57
2023/02/23 15:45:52;;;;;;;11.68;5.20;;;;;;;;;;5034766;28;20570;-58
2023/02/23 15:48:22;;;;;;;11.73;5.55;;;;;;;;;;5035139;28;20049;-56
2023/02/23 15:50:52;;;;;;;10.88;4.55;;;;;;;;;;5035597;28;20069;-58
2023/02/23 15:53:28;;;;;;;9.63;5.53;;;;;;;;;;5035083;28;20069;-59
2023/02/23 15:56:01;;;;;;;8.77;4.53;;;;;;;;;;5035461;28;20088;-57
2023/02/23 15:58:31;;;;;;;9.98;5.10;;;;;;;;;;5034712;28;20065;-59
2023/02/23 16:01:04;;;;;;;11.23;6.15;;;;;;;;;;5034718;28;20060;-59
2023/02/23 16:03:35;;;;;;;9.48;5.32;;;;;;;;;;5034831;28;20053;-58